Gotse Delchev, Bulgaria
Current Conditions -  °F | °C
As of 2:20 AM on Sunday 26 Oct 2014 (Local Time) from LGKV Reporting Station
Overcast Overcast  
Wind Chill: 50°   Ceiling: 8000
Heat Index: 50°   Visibility: 6mi
Dew Point: 45°   Wind: 7mph
Humidity: 82%   Direction: 110°ESE
Pressure: 30.03"   Gusts: NA
Location:  41.57°N, 23.74°E
Report Text: LGKV 252320Z 11006KT 9999 SCT020 OVC080 10/07 Q1017
Loading
Personal Weather Stations






























Interactive Weather Map
Tropical Storm Tracking
New forecast layout! Learn more

10-Day Weather Forecast

Advertisements
Track Severe Weather on mobile